createdAt,value
2022-08-19T04:43:15.778Z,23.04
2022-08-19T04:45:46.798Z,23.06
2022-08-19T04:48:26.432Z,23.08
2022-08-19T04:50:58.816Z,23.14
2022-08-19T04:53:35.522Z,23.22
2022-08-19T04:56:11.499Z,23.29
2022-08-19T04:58:41.305Z,23.33
2022-08-19T05:01:10.174Z,23.40
2022-08-19T05:03:37.563Z,23.53
2022-08-19T05:06:09.635Z,23.58
2022-08-19T05:08:38.768Z,23.65
2022-08-19T05:11:15.024Z,23.76
2022-08-19T05:13:44.139Z,23.81
2022-08-19T05:16:13.313Z,23.92
2022-08-19T05:18:59.937Z,24.05
2022-08-19T05:21:46.459Z,24.18
2022-08-19T05:24:15.144Z,24.26
2022-08-19T05:26:44.388Z,24.35
2022-08-19T05:29:11.455Z,24.22
2022-08-19T05:31:41.913Z,24.19
2022-08-19T05:34:20.249Z,24.26
2022-08-19T05:36:47.665Z,24.35
2022-08-19T05:39:21.473Z,24.41
2022-08-19T05:41:51.336Z,24.48
2022-08-19T05:44:19.077Z,24.62
2022-08-19T05:46:48.273Z,24.63
2022-08-19T05:49:17.456Z,24.70
2022-08-19T05:51:44.455Z,24.76
2022-08-19T05:54:14.566Z,24.92
2022-08-19T05:56:43.478Z,24.99
2022-08-19T05:59:12.620Z,24.96
2022-08-19T06:01:40.695Z,24.98
2022-08-19T06:04:07.829Z,24.99
2022-08-19T06:06:36.230Z,24.98
2022-08-19T06:09:05.020Z,24.80
2022-08-19T06:11:40.845Z,24.74
2022-08-19T06:14:16.538Z,24.78
2022-08-19T06:16:44.761Z,24.96
2022-08-19T06:19:17.758Z,25.10
2022-08-19T06:21:48.565Z,25.14
2022-08-19T06:24:19.481Z,25.32
2022-08-19T06:29:36.406Z,25.35
2022-08-19T06:32:04.368Z,25.25
2022-08-19T06:34:34.258Z,25.12
2022-08-19T06:37:02.498Z,25.18
2022-08-19T06:39:33.906Z,25.31
2022-08-19T06:42:04.385Z,25.42
2022-08-19T06:44:38.436Z,25.38
2022-08-19T06:47:14.611Z,25.16
2022-08-19T06:49:43.528Z,25.30
2022-08-19T06:52:15.421Z,25.44
2022-08-19T06:54:55.876Z,25.61
2022-08-19T06:57:25.583Z,25.60
2022-08-19T06:59:52.978Z,25.72
2022-08-19T07:02:20.619Z,25.78
2022-08-19T07:04:47.658Z,25.89
2022-08-19T07:07:20.113Z,25.94
2022-08-19T07:09:59.874Z,25.94
2022-08-19T07:12:38.092Z,26.03
2022-08-19T07:15:12.060Z,26.20
2022-08-19T07:17:42.056Z,26.30
2022-08-19T07:20:10.842Z,26.38
2022-08-19T07:22:39.455Z,26.47
2022-08-19T07:25:09.845Z,26.61
2022-08-19T07:27:39.496Z,26.70
2022-08-19T07:30:07.907Z,26.70
2022-08-19T07:32:38.971Z,26.84
2022-08-19T07:35:07.388Z,27.00
2022-08-19T07:37:36.713Z,27.03
2022-08-19T07:40:06.961Z,27.14
2022-08-19T07:42:34.254Z,27.31
2022-08-19T07:45:01.294Z,27.42
2022-08-19T07:47:50.024Z,27.51
2022-08-19T07:50:17.738Z,27.69
2022-08-19T07:52:48.797Z,27.82
2022-08-19T07:55:42.584Z,28.03
2022-08-19T07:58:06.435Z,28.16
2022-08-19T08:00:33.494Z,28.27
2022-08-19T08:03:00.736Z,28.32
2022-08-19T08:06:03.295Z,28.46
2022-08-19T08:08:49.292Z,28.56
2022-08-19T08:11:20.838Z,28.49
2022-08-19T08:14:01.297Z,28.34
2022-08-19T08:16:39.529Z,28.36
2022-08-19T08:19:25.300Z,28.31
2022-08-19T08:21:55.150Z,28.20
2022-08-19T08:24:22.232Z,28.30
2022-08-19T08:26:57.134Z,28.24
2022-08-19T08:29:26.052Z,28.25
2022-08-19T08:31:59.686Z,28.59
2022-08-19T08:34:27.420Z,28.62
2022-08-19T08:36:54.392Z,28.58
2022-08-19T08:39:22.608Z,28.58
2022-08-19T08:42:01.717Z,28.82
2022-08-19T08:44:37.473Z,28.89
2022-08-19T08:47:11.582Z,29.03
2022-08-19T08:49:44.665Z,29.14
2022-08-19T08:52:36.565Z,29.23
2022-08-19T08:55:12.201Z,29.29
2022-08-19T08:57:56.349Z,29.24
2022-08-19T09:00:30.731Z,29.21
2022-08-19T09:02:59.498Z,29.23
2022-08-19T09:05:48.849Z,29.22
2022-08-19T09:08:31.703Z,29.59
2022-08-19T09:10:58.765Z,29.64
2022-08-19T09:13:48.444Z,29.79
2022-08-19T09:16:21.856Z,29.85
2022-08-19T09:19:03.408Z,30.07
2022-08-19T09:21:34.313Z,30.08
2022-08-19T09:24:03.421Z,30.08
2022-08-19T09:26:47.333Z,30.20
2022-08-19T09:29:15.828Z,30.18
2022-08-19T09:31:44.864Z,30.10
2022-08-19T09:34:21.106Z,30.21
2022-08-19T09:36:53.736Z,30.14
2022-08-19T09:39:20.895Z,30.01
2022-08-19T09:41:49.028Z,29.91
2022-08-19T09:44:18.128Z,29.90
2022-08-19T09:46:48.402Z,29.89
2022-08-19T09:49:18.505Z,29.78
2022-08-19T09:51:51.236Z,29.71
2022-08-19T09:54:23.590Z,29.75
2022-08-19T09:56:51.808Z,29.57
2022-08-19T09:59:19.301Z,29.70
2022-08-19T10:01:46.500Z,29.65
2022-08-19T10:04:14.912Z,29.75
2022-08-19T10:06:53.745Z,29.84
2022-08-19T10:09:33.685Z,29.85
2022-08-19T10:12:02.972Z,30.04
2022-08-19T10:14:30.469Z,29.95
2022-08-19T10:16:59.341Z,29.97
2022-08-19T10:19:26.952Z,30.07
2022-08-19T10:22:00.492Z,30.07
2022-08-19T10:24:29.276Z,30.09
2022-08-19T10:26:59.043Z,30.22
2022-08-19T10:29:33.093Z,30.08
2022-08-19T10:32:09.995Z,30.03
2022-08-19T10:34:47.888Z,30.14
2022-08-19T10:37:15.607Z,30.23
2022-08-19T10:39:51.600Z,29.92
2022-08-19T10:42:19.873Z,29.95
2022-08-19T10:44:47.955Z,29.90
2022-08-19T10:47:17.865Z,29.90
2022-08-19T10:50:12.257Z,29.83
2022-08-19T10:52:48.925Z,29.73
2022-08-19T10:55:36.008Z,29.63
2022-08-19T10:58:04.961Z,29.65
2022-08-19T11:00:32.723Z,29.71
2022-08-19T11:02:59.778Z,29.78
2022-08-19T11:05:26.862Z,29.81
2022-08-19T11:07:54.165Z,29.98
2022-08-19T11:10:25.138Z,30.01
2022-08-19T11:12:55.786Z,29.94
2022-08-19T11:15:25.330Z,29.49
2022-08-19T11:17:53.562Z,29.12
2022-08-19T11:20:20.778Z,29.18
2022-08-19T11:22:52.050Z,29.20
2022-08-19T11:25:19.190Z,29.21
2022-08-19T11:27:47.437Z,29.10
2022-08-19T11:30:16.329Z,29.07
2022-08-19T11:32:47.319Z,28.69
2022-08-19T11:35:17.386Z,28.65
2022-08-19T11:37:44.384Z,28.66
2022-08-19T11:40:12.252Z,28.65
2022-08-19T11:42:57.913Z,28.21
2022-08-19T11:45:28.305Z,28.27
2022-08-19T11:47:56.026Z,28.12
2022-08-19T11:50:24.724Z,27.95
2022-08-19T11:52:55.823Z,27.82
2022-08-19T11:55:23.283Z,27.61
2022-08-19T11:57:50.615Z,27.65
2022-08-19T12:00:17.770Z,27.51
2022-08-19T12:02:44.783Z,27.54
2022-08-19T12:05:13.060Z,27.37
2022-08-19T12:07:42.655Z,27.40
2022-08-19T12:10:10.760Z,27.22
2022-08-19T12:12:43.738Z,27.19
2022-08-19T12:15:13.224Z,27.05
2022-08-19T12:17:40.185Z,27.03
2022-08-19T12:20:10.097Z,26.80
2022-08-19T12:22:38.743Z,26.69
2022-08-19T12:25:06.596Z,26.47
2022-08-19T12:27:40.851Z,26.30
2022-08-19T12:30:12.111Z,26.16
2022-08-19T12:32:40.204Z,25.92
2022-08-19T12:35:10.289Z,26.03
2022-08-19T12:37:37.470Z,26.08
2022-08-19T12:40:05.359Z,25.98
2022-08-19T12:42:32.585Z,25.90
2022-08-19T12:44:59.603Z,25.92
2022-08-19T12:47:27.758Z,25.84
2022-08-19T12:49:56.116Z,25.76
2022-08-19T12:52:26.350Z,25.80
2022-08-19T12:54:55.753Z,25.71
2022-08-19T12:57:32.165Z,25.80
2022-08-19T13:00:26.495Z,25.85
2022-08-19T13:02:53.444Z,25.82
2022-08-19T13:05:26.624Z,25.64
2022-08-19T13:07:58.527Z,25.70
2022-08-19T13:10:29.016Z,25.62
2022-08-19T13:12:57.072Z,25.51
2022-08-19T13:15:24.786Z,25.35
2022-08-19T13:17:54.885Z,25.32
2022-08-19T13:20:23.395Z,25.14
2022-08-19T13:22:50.534Z,25.13
2022-08-19T13:25:20.456Z,25.23
2022-08-19T13:27:49.358Z,25.32
2022-08-19T13:30:36.468Z,25.39
2022-08-19T13:33:12.446Z,25.48
2022-08-19T13:35:45.331Z,25.44
2022-08-19T13:38:13.869Z,25.47
2022-08-19T13:40:42.154Z,25.47
2022-08-19T13:43:17.756Z,25.44
2022-08-19T13:45:57.543Z,25.41
2022-08-19T13:48:27.663Z,25.39
2022-08-19T13:50:55.431Z,25.36
2022-08-19T13:53:22.547Z,25.37
2022-08-19T13:55:51.664Z,25.40
2022-08-19T13:58:18.650Z,25.48
2022-08-19T14:00:47.578Z,25.52
2022-08-19T14:03:14.966Z,25.61
2022-08-19T14:05:42.122Z,25.60
2022-08-19T14:08:10.514Z,25.69
2022-08-19T14:10:37.682Z,25.86
2022-08-19T14:13:05.293Z,25.96
2022-08-19T14:15:32.969Z,26.10
2022-08-19T14:18:00.557Z,26.45
2022-08-19T14:20:27.820Z,26.87
2022-08-19T14:22:56.005Z,28.08
2022-08-19T14:25:27.473Z,29.38
2022-08-19T14:27:55.355Z,30.33
2022-08-19T14:30:29.674Z,30.82
2022-08-19T14:32:59.503Z,31.13
2022-08-19T14:35:28.282Z,31.02
2022-08-19T14:37:56.650Z,30.55
2022-08-19T14:40:27.253Z,30.42
2022-08-19T14:43:00.533Z,29.85
2022-08-19T14:45:29.683Z,29.81
2022-08-19T14:47:56.775Z,29.77
2022-08-19T14:50:23.968Z,29.45
2022-08-19T14:52:52.040Z,29.32
2022-08-19T14:55:19.815Z,29.59
2022-08-19T14:57:47.029Z,29.73
2022-08-19T15:00:15.084Z,30.58
2022-08-19T15:02:45.310Z,30.84
2022-08-19T15:05:13.874Z,31.81
2022-08-19T15:07:42.090Z,32.52
2022-08-19T15:10:11.109Z,32.39
2022-08-19T15:12:43.989Z,32.56
2022-08-19T15:15:15.427Z,32.87
2022-08-19T15:17:54.359Z,32.78
2022-08-19T15:20:23.903Z,31.69
2022-08-19T15:22:51.244Z,31.46
2022-08-19T15:25:20.230Z,30.92
2022-08-19T15:27:48.255Z,30.37
2022-08-19T15:30:29.325Z,30.75
2022-08-19T15:32:57.590Z,29.94
2022-08-19T15:35:25.596Z,30.02
2022-08-19T15:37:54.341Z,29.42
2022-08-19T15:40:22.733Z,29.24
2022-08-19T15:42:50.276Z,28.64
2022-08-19T15:45:19.601Z,28.47
2022-08-19T15:47:47.273Z,28.32
2022-08-19T15:50:21.393Z,28.02
2022-08-19T15:52:57.328Z,27.60
2022-08-19T15:55:32.664Z,27.56
2022-08-19T15:58:29.713Z,27.47
2022-08-19T16:01:24.103Z,27.42
2022-08-19T16:04:14.758Z,27.10
2022-08-19T16:06:54.924Z,27.06
2022-08-19T16:09:27.577Z,27.07
2022-08-19T16:12:01.457Z,26.99
2022-08-19T16:14:30.897Z,27.08
2022-08-19T16:16:58.066Z,27.23
2022-08-19T16:19:25.750Z,27.12
2022-08-19T16:21:55.304Z,27.22
2022-08-19T16:24:25.478Z,27.30
2022-08-19T16:26:53.036Z,27.30
2022-08-19T16:29:34.497Z,27.28
2022-08-19T16:32:10.574Z,27.32
2022-08-19T16:34:42.021Z,27.15
2022-08-19T16:37:10.369Z,27.21
2022-08-19T16:39:37.679Z,27.11
2022-08-19T16:42:07.516Z,27.03
2022-08-19T16:44:35.819Z,27.06
2022-08-19T16:47:03.730Z,26.87
2022-08-19T16:49:53.211Z,26.85
2022-08-19T16:52:19.623Z,26.71
2022-08-19T16:54:47.154Z,26.72
2022-08-19T16:57:14.554Z,26.69
2022-08-19T16:59:44.112Z,26.45
2022-08-19T17:02:18.115Z,26.24
2022-08-19T17:04:57.604Z,26.18
2022-08-19T17:07:32.160Z,26.21
2022-08-19T17:10:02.345Z,26.09
2022-08-19T17:12:32.036Z,25.88
2022-08-19T17:15:01.052Z,25.88
2022-08-19T17:17:29.540Z,25.95
2022-08-19T17:20:01.428Z,26.04
2022-08-19T17:22:29.108Z,26.07
2022-08-19T17:24:58.287Z,26.10
2022-08-19T17:27:31.528Z,26.11
2022-08-19T17:30:02.838Z,26.10
2022-08-19T17:32:30.927Z,26.11
2022-08-19T17:34:59.911Z,26.19
2022-08-19T17:37:28.391Z,26.20
2022-08-19T17:39:55.867Z,26.22
2022-08-19T17:42:23.080Z,26.19
2022-08-19T17:44:50.847Z,26.16
2022-08-19T17:47:19.715Z,26.14
2022-08-19T17:49:47.112Z,26.09
2022-08-19T17:52:14.177Z,26.09
2022-08-19T17:54:41.293Z,26.06
2022-08-19T17:57:08.728Z,26.02
2022-08-19T17:59:37.648Z,25.96
2022-08-19T18:02:06.570Z,25.85
2022-08-19T18:04:33.608Z,25.89
2022-08-19T18:07:04.689Z,25.88
2022-08-19T18:09:41.516Z,25.78
2022-08-19T18:12:14.388Z,25.72
2022-08-19T18:14:41.857Z,25.66
2022-08-19T18:17:12.747Z,25.61
2022-08-19T18:19:43.102Z,25.62
2022-08-19T18:22:22.710Z,25.64
2022-08-19T18:24:50.018Z,25.51
2022-08-19T18:27:17.110Z,25.54
2022-08-19T18:29:45.078Z,25.48
2022-08-19T18:32:13.134Z,25.42
2022-08-19T18:34:42.107Z,25.40
2022-08-19T18:37:09.640Z,25.46
2022-08-19T18:39:55.515Z,25.43
2022-08-19T18:42:41.708Z,25.46
2022-08-19T18:45:28.432Z,25.39
2022-08-19T18:48:26.543Z,25.30
2022-08-19T18:50:57.061Z,25.31
2022-08-19T18:53:24.743Z,25.23
2022-08-19T18:55:54.089Z,25.23
2022-08-19T18:58:32.450Z,25.10
2022-08-19T19:01:15.389Z,25.05
2022-08-19T19:03:45.607Z,24.88
2022-08-19T19:06:22.673Z,24.98
2022-08-19T19:08:51.582Z,24.99
2022-08-19T19:11:25.250Z,25.00
2022-08-19T19:13:55.092Z,24.91
2022-08-19T19:16:24.682Z,24.87
2022-08-19T19:18:53.084Z,24.86
2022-08-19T19:21:22.351Z,24.90
2022-08-19T19:23:50.127Z,24.91
2022-08-19T19:26:18.233Z,24.83
2022-08-19T19:28:46.160Z,24.84
2022-08-19T19:31:20.767Z,24.75
2022-08-19T19:33:47.969Z,24.75
2022-08-19T19:36:15.584Z,24.75
2022-08-19T19:38:48.705Z,24.73
2022-08-19T19:41:19.468Z,24.71
2022-08-19T19:43:46.873Z,24.75
2022-08-19T19:46:16.730Z,24.81
2022-08-19T19:48:48.689Z,24.74
2022-08-19T19:51:17.559Z,24.72
2022-08-19T19:53:44.606Z,24.61
2022-08-19T19:56:13.160Z,24.65
2022-08-19T19:58:40.338Z,24.63
2022-08-19T20:01:13.020Z,24.53
2022-08-19T20:03:49.024Z,24.47
2022-08-19T20:06:18.372Z,24.54
2022-08-19T20:09:05.777Z,24.55
2022-08-19T20:11:45.932Z,24.58
2022-08-19T20:14:17.081Z,24.62
2022-08-19T20:16:46.209Z,24.63
2022-08-19T20:19:16.147Z,24.67
2022-08-19T20:21:47.586Z,24.65
2022-08-19T20:24:22.763Z,24.62
2022-08-19T20:26:53.359Z,24.58
2022-08-19T20:29:39.124Z,24.52
2022-08-19T20:32:08.837Z,24.52
2022-08-19T20:34:36.168Z,24.55
2022-08-19T20:37:03.473Z,24.54
2022-08-19T20:39:30.537Z,24.52
2022-08-19T20:41:57.802Z,24.56
2022-08-19T20:44:25.729Z,24.55
2022-08-19T20:46:56.772Z,24.54
2022-08-19T20:49:27.033Z,24.54
2022-08-19T20:51:58.668Z,24.50
2022-08-19T20:54:26.308Z,24.50
2022-08-19T20:56:54.379Z,24.47
2022-08-19T20:59:23.306Z,24.43
2022-08-19T21:01:53.780Z,24.40
2022-08-19T21:04:21.738Z,24.37
2022-08-19T21:06:50.176Z,24.36
2022-08-19T21:09:17.724Z,24.32
2022-08-19T21:11:44.821Z,24.30
2022-08-19T21:14:13.075Z,24.29
2022-08-19T21:16:40.042Z,24.23
2022-08-19T21:19:07.092Z,24.24
2022-08-19T21:21:35.211Z,24.24
2022-08-19T21:24:02.516Z,24.24
2022-08-19T21:26:29.480Z,24.26
2022-08-19T21:28:56.699Z,24.25
2022-08-19T21:31:23.766Z,24.25
2022-08-19T21:33:50.856Z,24.26
2022-08-19T21:36:17.882Z,24.20
2022-08-19T21:38:45.010Z,24.19
2022-08-19T21:41:12.121Z,24.12
2022-08-19T21:43:40.338Z,24.01
2022-08-19T21:46:09.289Z,23.79
2022-08-19T21:48:37.714Z,23.69
2022-08-19T21:51:04.873Z,23.55
2022-08-19T21:53:34.660Z,23.61
2022-08-19T21:56:06.984Z,23.59
2022-08-19T21:58:36.625Z,23.60
2022-08-19T22:01:08.088Z,23.47
2022-08-19T22:03:38.649Z,23.41
2022-08-19T22:06:06.814Z,23.37
2022-08-19T22:08:33.765Z,23.27
2022-08-19T22:11:02.659Z,23.27
2022-08-19T22:13:39.943Z,23.08
2022-08-19T22:16:08.099Z,22.94
2022-08-19T22:18:37.192Z,22.80
2022-08-19T22:21:11.213Z,22.78
2022-08-19T22:23:40.031Z,22.79
2022-08-19T22:26:07.130Z,22.50
2022-08-19T22:28:34.413Z,22.17
2022-08-19T22:31:03.416Z,21.57
2022-08-19T22:33:32.480Z,20.92
2022-08-19T22:36:00.022Z,20.67
2022-08-19T22:38:27.636Z,20.35
2022-08-19T22:40:56.797Z,20.25
2022-08-19T22:43:31.791Z,20.25
2022-08-19T22:46:00.691Z,20.18
2022-08-19T22:48:32.908Z,20.13
2022-08-19T22:51:21.196Z,20.11
2022-08-19T22:53:48.423Z,20.02
2022-08-19T22:56:21.154Z,19.91
2022-08-19T22:58:50.257Z,19.98
2022-08-19T23:01:27.539Z,19.82
2022-08-19T23:03:57.582Z,19.77
2022-08-19T23:06:27.981Z,19.72
2022-08-19T23:09:04.741Z,19.73
2022-08-19T23:11:41.593Z,19.77
2022-08-19T23:14:11.536Z,19.87
2022-08-19T23:16:39.530Z,19.97
2022-08-19T23:19:09.188Z,19.99
2022-08-19T23:21:36.543Z,20.04
2022-08-19T23:24:04.870Z,20.08
2022-08-19T23:26:35.733Z,20.11
2022-08-19T23:29:22.851Z,20.13
2022-08-19T23:31:50.117Z,20.18
2022-08-19T23:34:17.445Z,20.20
2022-08-19T23:36:44.508Z,20.13
2022-08-19T23:39:11.495Z,20.19
2022-08-19T23:41:39.601Z,20.22
2022-08-19T23:44:06.904Z,20.28
2022-08-19T23:46:54.510Z,20.29
2022-08-19T23:49:23.398Z,20.25
2022-08-19T23:51:50.369Z,20.26
2022-08-19T23:54:17.440Z,20.23
2022-08-19T23:56:44.435Z,20.18
2022-08-19T23:59:11.667Z,20.22
